sensor_id;sensor_type;location;lat;lon;timestamp;P1;durP1;ratioP1;P2;durP2;ratioP2
71777;SDS011;59609;52.430;4.668;2023-04-24T00:00:58;1.90;;;1.80;;
71777;SDS011;59609;52.430;4.668;2023-04-24T00:03:26;3.35;;;2.80;;
71777;SDS011;59609;52.430;4.668;2023-04-24T00:05:53;4.18;;;3.60;;
71777;SDS011;59609;52.430;4.668;2023-04-24T00:08:19;7.15;;;4.28;;
71777;SDS011;59609;52.430;4.668;2023-04-24T00:10:44;8.13;;;5.25;;
71777;SDS011;59609;52.430;4.668;2023-04-24T00:13:09;9.82;;;5.32;;
71777;SDS011;59609;52.430;4.668;2023-04-24T00:15:35;8.80;;;5.05;;
71777;SDS011;59609;52.430;4.668;2023-04-24T00:18:00;9.80;;;4.38;;
71777;SDS011;59609;52.430;4.668;2023-04-24T00:20:26;6.03;;;4.10;;
71777;SDS011;59609;52.430;4.668;2023-04-24T00:22:54;6.00;;;4.32;;
71777;SDS011;59609;52.430;4.668;2023-04-24T00:25:20;4.82;;;4.03;;
71777;SDS011;59609;52.430;4.668;2023-04-24T00:27:45;6.20;;;3.40;;
71777;SDS011;59609;52.430;4.668;2023-04-24T00:30:11;3.92;;;3.30;;
71777;SDS011;59609;52.430;4.668;2023-04-24T00:32:36;2.85;;;2.63;;
71777;SDS011;59609;52.430;4.668;2023-04-24T00:35:01;5.10;;;2.95;;
71777;SDS011;59609;52.430;4.668;2023-04-24T00:37:27;4.57;;;2.92;;
71777;SDS011;59609;52.430;4.668;2023-04-24T00:39:53;3.28;;;2.50;;
71777;SDS011;59609;52.430;4.668;2023-04-24T00:42:18;4.90;;;2.85;;
71777;SDS011;59609;52.430;4.668;2023-04-24T00:44:44;6.70;;;3.38;;
71777;SDS011;59609;52.430;4.668;2023-04-24T00:47:10;6.65;;;3.38;;
71777;SDS011;59609;52.430;4.668;2023-04-24T00:49:36;5.95;;;3.20;;
71777;SDS011;59609;52.430;4.668;2023-04-24T00:52:01;5.60;;;3.17;;
71777;SDS011;59609;52.430;4.668;2023-04-24T00:54:27;4.78;;;2.80;;
71777;SDS011;59609;52.430;4.668;2023-04-24T00:56:52;3.72;;;2.60;;
71777;SDS011;59609;52.430;4.668;2023-04-24T00:59:17;8.45;;;3.85;;
71777;SDS011;59609;52.430;4.668;2023-04-24T01:01:44;3.67;;;2.35;;
71777;SDS011;59609;52.430;4.668;2023-04-24T01:04:10;4.60;;;2.83;;
71777;SDS011;59609;52.430;4.668;2023-04-24T01:06:38;2.90;;;2.45;;
71777;SDS011;59609;52.430;4.668;2023-04-24T01:09:05;2.70;;;2.50;;
71777;SDS011;59609;52.430;4.668;2023-04-24T01:11:33;3.92;;;2.80;;
71777;SDS011;59609;52.430;4.668;2023-04-24T01:13:58;4.30;;;2.95;;
71777;SDS011;59609;52.430;4.668;2023-04-24T01:16:24;3.35;;;2.13;;
71777;SDS011;59609;52.430;4.668;2023-04-24T01:18:50;3.28;;;2.78;;
71777;SDS011;59609;52.430;4.668;2023-04-24T01:21:16;4.22;;;2.22;;
71777;SDS011;59609;52.430;4.668;2023-04-24T01:23:43;3.17;;;2.30;;
71777;SDS011;59609;52.430;4.668;2023-04-24T01:26:09;2.08;;;1.88;;
71777;SDS011;59609;52.430;4.668;2023-04-24T01:28:35;3.95;;;2.22;;
71777;SDS011;59609;52.430;4.668;2023-04-24T01:31:01;6.47;;;2.00;;
71777;SDS011;59609;52.430;4.668;2023-04-24T01:33:27;7.00;;;1.80;;
71777;SDS011;59609;52.430;4.668;2023-04-24T01:35:52;5.88;;;2.00;;
71777;SDS011;59609;52.430;4.668;2023-04-24T01:38:18;3.08;;;1.75;;
71777;SDS011;59609;52.430;4.668;2023-04-24T01:40:44;5.82;;;2.40;;
71777;SDS011;59609;52.430;4.668;2023-04-24T01:43:10;2.45;;;1.70;;
71777;SDS011;59609;52.430;4.668;2023-04-24T01:45:36;8.90;;;2.85;;
71777;SDS011;59609;52.430;4.668;2023-04-24T01:48:02;8.15;;;2.03;;
71777;SDS011;59609;52.430;4.668;2023-04-24T01:50:27;9.15;;;1.92;;
71777;SDS011;59609;52.430;4.668;2023-04-24T01:52:53;8.18;;;2.15;;
71777;SDS011;59609;52.430;4.668;2023-04-24T01:55:18;10.18;;;2.45;;
71777;SDS011;59609;52.430;4.668;2023-04-24T01:57:44;11.73;;;2.83;;
71777;SDS011;59609;52.430;4.668;2023-04-24T02:00:09;3.03;;;1.77;;
71777;SDS011;59609;52.430;4.668;2023-04-24T02:02:36;6.72;;;1.73;;
71777;SDS011;59609;52.430;4.668;2023-04-24T02:05:02;8.15;;;1.85;;
71777;SDS011;59609;52.430;4.668;2023-04-24T02:07:28;1.70;;;1.60;;
71777;SDS011;59609;52.430;4.668;2023-04-24T02:09:53;5.95;;;1.80;;
71777;SDS011;59609;52.430;4.668;2023-04-24T02:12:19;6.32;;;1.75;;
71777;SDS011;59609;52.430;4.668;2023-04-24T02:14:44;1.30;;;1.20;;
71777;SDS011;59609;52.430;4.668;2023-04-24T02:17:09;2.75;;;1.75;;
71777;SDS011;59609;52.430;4.668;2023-04-24T02:19:37;3.30;;;2.00;;
71777;SDS011;59609;52.430;4.668;2023-04-24T02:22:02;4.75;;;1.60;;
71777;SDS011;59609;52.430;4.668;2023-04-24T02:24:27;3.25;;;1.52;;
71777;SDS011;59609;52.430;4.668;2023-04-24T02:26:53;3.42;;;1.17;;
71777;SDS011;59609;52.430;4.668;2023-04-24T02:29:18;3.08;;;1.40;;
71777;SDS011;59609;52.430;4.668;2023-04-24T02:31:43;1.85;;;1.35;;
71777;SDS011;59609;52.430;4.668;2023-04-24T02:34:09;6.13;;;1.80;;
71777;SDS011;59609;52.430;4.668;2023-04-24T02:36:34;1.23;;;1.13;;
71777;SDS011;59609;52.430;4.668;2023-04-24T02:38:59;1.83;;;1.50;;
71777;SDS011;59609;52.430;4.668;2023-04-24T02:41:26;1.90;;;1.48;;
71777;SDS011;59609;52.430;4.668;2023-04-24T02:43:56;2.35;;;1.42;;
71777;SDS011;59609;52.430;4.668;2023-04-24T02:46:22;5.00;;;1.17;;
71777;SDS011;59609;52.430;4.668;2023-04-24T02:48:47;1.42;;;1.25;;
71777;SDS011;59609;52.430;4.668;2023-04-24T02:51:13;1.83;;;1.25;;
71777;SDS011;59609;52.430;4.668;2023-04-24T02:53:38;1.38;;;1.27;;
71777;SDS011;59609;52.430;4.668;2023-04-24T02:56:03;1.38;;;1.20;;
71777;SDS011;59609;52.430;4.668;2023-04-24T02:58:29;1.75;;;1.20;;
71777;SDS011;59609;52.430;4.668;2023-04-24T03:00:55;1.48;;;1.40;;
71777;SDS011;59609;52.430;4.668;2023-04-24T03:03:21;1.27;;;1.15;;
71777;SDS011;59609;52.430;4.668;2023-04-24T03:05:46;1.13;;;1.13;;
71777;SDS011;59609;52.430;4.668;2023-04-24T03:08:12;0.95;;;0.95;;
71777;SDS011;59609;52.430;4.668;2023-04-24T03:10:37;1.60;;;1.40;;
71777;SDS011;59609;52.430;4.668;2023-04-24T03:13:03;0.93;;;0.93;;
71777;SDS011;59609;52.430;4.668;2023-04-24T03:15:28;1.20;;;0.98;;
71777;SDS011;59609;52.430;4.668;2023-04-24T03:17:54;1.00;;;1.00;;
71777;SDS011;59609;52.430;4.668;2023-04-24T03:20:20;1.60;;;1.20;;
71777;SDS011;59609;52.430;4.668;2023-04-24T03:22:45;1.25;;;0.82;;
71777;SDS011;59609;52.430;4.668;2023-04-24T03:25:11;1.02;;;0.80;;
71777;SDS011;59609;52.430;4.668;2023-04-24T03:27:36;1.00;;;0.85;;
71777;SDS011;59609;52.430;4.668;2023-04-24T03:30:02;1.15;;;1.05;;
71777;SDS011;59609;52.430;4.668;2023-04-24T03:32:28;0.80;;;0.80;;
71777;SDS011;59609;52.430;4.668;2023-04-24T03:34:53;0.93;;;0.93;;
71777;SDS011;59609;52.430;4.668;2023-04-24T03:37:19;2.45;;;0.82;;
71777;SDS011;59609;52.430;4.668;2023-04-24T03:39:44;2.30;;;1.23;;
71777;SDS011;59609;52.430;4.668;2023-04-24T03:42:09;2.00;;;1.52;;
71777;SDS011;59609;52.430;4.668;2023-04-24T03:44:35;2.05;;;1.60;;
71777;SDS011;59609;52.430;4.668;2023-04-24T03:47:01;4.70;;;1.48;;
71777;SDS011;59609;52.430;4.668;2023-04-24T03:49:26;1.75;;;1.52;;
71777;SDS011;59609;52.430;4.668;2023-04-24T03:51:52;1.15;;;1.13;;
71777;SDS011;59609;52.430;4.668;2023-04-24T03:54:17;5.15;;;1.73;;
71777;SDS011;59609;52.430;4.668;2023-04-24T03:56:43;3.33;;;1.15;;
71777;SDS011;59609;52.430;4.668;2023-04-24T03:59:09;2.55;;;0.88;;
71777;SDS011;59609;52.430;4.668;2023-04-24T04:01:34;6.00;;;1.33;;
71777;SDS011;59609;52.430;4.668;2023-04-24T04:04:02;1.23;;;1.13;;
71777;SDS011;59609;52.430;4.668;2023-04-24T04:06:28;7.70;;;0.93;;
71777;SDS011;59609;52.430;4.668;2023-04-24T04:08:55;3.95;;;1.38;;
71777;SDS011;59609;52.430;4.668;2023-04-24T04:11:21;3.03;;;0.80;;
71777;SDS011;59609;52.430;4.668;2023-04-24T04:13:46;2.20;;;1.33;;
71777;SDS011;59609;52.430;4.668;2023-04-24T04:16:12;2.05;;;1.00;;
71777;SDS011;59609;52.430;4.668;2023-04-24T04:18:38;3.47;;;1.02;;
71777;SDS011;59609;52.430;4.668;2023-04-24T04:21:04;2.67;;;1.02;;
71777;SDS011;59609;52.430;4.668;2023-04-24T04:23:29;3.53;;;1.55;;
71777;SDS011;59609;52.430;4.668;2023-04-24T04:25:55;2.58;;;1.13;;
71777;SDS011;59609;52.430;4.668;2023-04-24T04:28:20;4.07;;;1.10;;
71777;SDS011;59609;52.430;4.668;2023-04-24T04:30:46;3.40;;;2.08;;
71777;SDS011;59609;52.430;4.668;2023-04-24T04:33:12;2.88;;;1.95;;
71777;SDS011;59609;52.430;4.668;2023-04-24T04:35:37;4.30;;;2.08;;
71777;SDS011;59609;52.430;4.668;2023-04-24T04:38:02;2.28;;;1.88;;
71777;SDS011;59609;52.430;4.668;2023-04-24T04:40:28;3.15;;;2.38;;
71777;SDS011;59609;52.430;4.668;2023-04-24T04:42:55;3.35;;;1.67;;
71777;SDS011;59609;52.430;4.668;2023-04-24T04:45:20;9.15;;;3.63;;
71777;SDS011;59609;52.430;4.668;2023-04-24T04:47:46;3.65;;;2.65;;
71777;SDS011;59609;52.430;4.668;2023-04-24T04:50:12;4.10;;;2.70;;
71777;SDS011;59609;52.430;4.668;2023-04-24T04:52:38;7.03;;;3.22;;
71777;SDS011;59609;52.430;4.668;2023-04-24T04:55:04;10.55;;;4.18;;
71777;SDS011;59609;52.430;4.668;2023-04-24T04:57:30;7.18;;;4.55;;
71777;SDS011;59609;52.430;4.668;2023-04-24T04:59:55;13.45;;;5.25;;
71777;SDS011;59609;52.430;4.668;2023-04-24T05:02:20;17.60;;;5.90;;
71777;SDS011;59609;52.430;4.668;2023-04-24T05:04:46;8.98;;;5.57;;
71777;SDS011;59609;52.430;4.668;2023-04-24T05:07:11;15.23;;;7.03;;
71777;SDS011;59609;52.430;4.668;2023-04-24T05:09:37;24.52;;;9.00;;
71777;SDS011;59609;52.430;4.668;2023-04-24T05:12:02;25.23;;;9.95;;
71777;SDS011;59609;52.430;4.668;2023-04-24T05:14:28;24.70;;;10.43;;
71777;SDS011;59609;52.430;4.668;2023-04-24T05:16:53;27.02;;;10.25;;
71777;SDS011;59609;52.430;4.668;2023-04-24T05:19:19;23.00;;;9.55;;
71777;SDS011;59609;52.430;4.668;2023-04-24T05:21:44;27.40;;;10.63;;
71777;SDS011;59609;52.430;4.668;2023-04-24T05:24:10;22.67;;;9.93;;
71777;SDS011;59609;52.430;4.668;2023-04-24T05:26:35;21.88;;;10.43;;
71777;SDS011;59609;52.430;4.668;2023-04-24T05:29:01;24.05;;;10.57;;
71777;SDS011;59609;52.430;4.668;2023-04-24T05:31:27;17.67;;;9.27;;
71777;SDS011;59609;52.430;4.668;2023-04-24T05:33:52;22.40;;;10.02;;
71777;SDS011;59609;52.430;4.668;2023-04-24T05:36:18;25.20;;;9.98;;
71777;SDS011;59609;52.430;4.668;2023-04-24T05:38:43;24.85;;;10.60;;
71777;SDS011;59609;52.430;4.668;2023-04-24T05:41:09;21.20;;;10.05;;
71777;SDS011;59609;52.430;4.668;2023-04-24T05:43:34;22.02;;;9.68;;
71777;SDS011;59609;52.430;4.668;2023-04-24T05:45:59;19.65;;;9.18;;
71777;SDS011;59609;52.430;4.668;2023-04-24T05:48:25;21.70;;;10.27;;
71777;SDS011;59609;52.430;4.668;2023-04-24T05:50:51;21.38;;;8.35;;
71777;SDS011;59609;52.430;4.668;2023-04-24T05:53:17;17.88;;;8.38;;
71777;SDS011;59609;52.430;4.668;2023-04-24T05:55:43;19.00;;;8.13;;
71777;SDS011;59609;52.430;4.668;2023-04-24T05:58:08;21.13;;;8.80;;
71777;SDS011;59609;52.430;4.668;2023-04-24T06:00:34;20.23;;;8.02;;
71777;SDS011;59609;52.430;4.668;2023-04-24T06:03:00;21.13;;;9.15;;
71777;SDS011;59609;52.430;4.668;2023-04-24T06:05:25;22.75;;;8.63;;
71777;SDS011;59609;52.430;4.668;2023-04-24T06:07:51;20.15;;;11.02;;
71777;SDS011;59609;52.430;4.668;2023-04-24T06:10:16;20.10;;;10.57;;
71777;SDS011;59609;52.430;4.668;2023-04-24T06:12:42;17.77;;;8.05;;
71777;SDS011;59609;52.430;4.668;2023-04-24T06:15:07;17.27;;;6.88;;
71777;SDS011;59609;52.430;4.668;2023-04-24T06:17:33;20.77;;;7.95;;
71777;SDS011;59609;52.430;4.668;2023-04-24T06:19:59;18.80;;;6.63;;
71777;SDS011;59609;52.430;4.668;2023-04-24T06:22:24;26.02;;;7.70;;
71777;SDS011;59609;52.430;4.668;2023-04-24T06:24:49;17.50;;;7.10;;
71777;SDS011;59609;52.430;4.668;2023-04-24T06:27:15;20.05;;;6.93;;
71777;SDS011;59609;52.430;4.668;2023-04-24T06:29:40;16.40;;;7.47;;
71777;SDS011;59609;52.430;4.668;2023-04-24T06:32:05;24.85;;;6.75;;
71777;SDS011;59609;52.430;4.668;2023-04-24T06:34:31;18.38;;;8.73;;
71777;SDS011;59609;52.430;4.668;2023-04-24T06:36:57;19.58;;;8.23;;
71777;SDS011;59609;52.430;4.668;2023-04-24T06:39:23;15.93;;;6.30;;
71777;SDS011;59609;52.430;4.668;2023-04-24T06:41:48;17.95;;;6.95;;
71777;SDS011;59609;52.430;4.668;2023-04-24T06:44:14;29.60;;;6.25;;
71777;SDS011;59609;52.430;4.668;2023-04-24T06:46:40;19.30;;;6.13;;
71777;SDS011;59609;52.430;4.668;2023-04-24T06:49:06;22.08;;;5.82;;
71777;SDS011;59609;52.430;4.668;2023-04-24T06:51:31;17.10;;;5.10;;
71777;SDS011;59609;52.430;4.668;2023-04-24T06:53:58;22.48;;;6.30;;
71777;SDS011;59609;52.430;4.668;2023-04-24T06:56:24;18.55;;;4.45;;
71777;SDS011;59609;52.430;4.668;2023-04-24T06:58:50;14.45;;;4.55;;
71777;SDS011;59609;52.430;4.668;2023-04-24T07:01:16;14.95;;;3.80;;
71777;SDS011;59609;52.430;4.668;2023-04-24T07:03:41;13.95;;;4.60;;
71777;SDS011;59609;52.430;4.668;2023-04-24T07:06:07;26.95;;;5.25;;
71777;SDS011;59609;52.430;4.668;2023-04-24T07:08:33;11.23;;;3.20;;
71777;SDS011;59609;52.430;4.668;2023-04-24T07:10:59;18.48;;;4.53;;
71777;SDS011;59609;52.430;4.668;2023-04-24T07:13:25;13.65;;;3.45;;
71777;SDS011;59609;52.430;4.668;2023-04-24T07:15:51;14.88;;;3.70;;
71777;SDS011;59609;52.430;4.668;2023-04-24T07:18:18;13.65;;;4.45;;
71777;SDS011;59609;52.430;4.668;2023-04-24T07:20:44;15.30;;;5.70;;
71777;SDS011;59609;52.430;4.668;2023-04-24T07:23:10;16.27;;;5.40;;
71777;SDS011;59609;52.430;4.668;2023-04-24T07:25:35;15.07;;;4.82;;
71777;SDS011;59609;52.430;4.668;2023-04-24T07:28:00;12.65;;;5.25;;
71777;SDS011;59609;52.430;4.668;2023-04-24T07:30:26;17.38;;;6.35;;
71777;SDS011;59609;52.430;4.668;2023-04-24T07:32:53;20.80;;;6.25;;
71777;SDS011;59609;52.430;4.668;2023-04-24T07:35:19;9.20;;;4.88;;
71777;SDS011;59609;52.430;4.668;2023-04-24T07:37:45;11.60;;;5.05;;
71777;SDS011;59609;52.430;4.668;2023-04-24T07:40:11;11.15;;;4.65;;
71777;SDS011;59609;52.430;4.668;2023-04-24T07:42:40;17.17;;;5.88;;
71777;SDS011;59609;52.430;4.668;2023-04-24T07:45:06;11.02;;;5.22;;
71777;SDS011;59609;52.430;4.668;2023-04-24T07:47:32;11.65;;;4.32;;
71777;SDS011;59609;52.430;4.668;2023-04-24T07:49:58;8.38;;;5.03;;
71777;SDS011;59609;52.430;4.668;2023-04-24T07:52:24;12.07;;;4.25;;
71777;SDS011;59609;52.430;4.668;2023-04-24T07:54:49;9.90;;;4.63;;
71777;SDS011;59609;52.430;4.668;2023-04-24T07:57:15;12.63;;;5.03;;
71777;SDS011;59609;52.430;4.668;2023-04-24T07:59:41;8.52;;;4.68;;
71777;SDS011;59609;52.430;4.668;2023-04-24T08:02:07;9.07;;;4.38;;
71777;SDS011;59609;52.430;4.668;2023-04-24T08:04:32;10.85;;;4.47;;
71777;SDS011;59609;52.430;4.668;2023-04-24T08:06:58;9.40;;;4.55;;
71777;SDS011;59609;52.430;4.668;2023-04-24T08:09:23;11.65;;;4.70;;
71777;SDS011;59609;52.430;4.668;2023-04-24T08:11:49;9.65;;;4.72;;
71777;SDS011;59609;52.430;4.668;2023-04-24T08:14:14;11.57;;;4.95;;
71777;SDS011;59609;52.430;4.668;2023-04-24T08:16:40;11.00;;;4.90;;
71777;SDS011;59609;52.430;4.668;2023-04-24T08:19:06;13.80;;;4.70;;
71777;SDS011;59609;52.430;4.668;2023-04-24T08:21:31;15.65;;;5.65;;
71777;SDS011;59609;52.430;4.668;2023-04-24T08:23:57;12.48;;;4.50;;
71777;SDS011;59609;52.430;4.668;2023-04-24T08:26:22;12.38;;;5.10;;
71777;SDS011;59609;52.430;4.668;2023-04-24T08:28:48;10.50;;;4.85;;
71777;SDS011;59609;52.430;4.668;2023-04-24T08:31:13;8.57;;;4.03;;
71777;SDS011;59609;52.430;4.668;2023-04-24T08:33:39;7.53;;;4.25;;
71777;SDS011;59609;52.430;4.668;2023-04-24T08:36:05;10.43;;;4.60;;
71777;SDS011;59609;52.430;4.668;2023-04-24T08:38:32;10.77;;;4.15;;
71777;SDS011;59609;52.430;4.668;2023-04-24T08:40:58;10.98;;;4.68;;
71777;SDS011;59609;52.430;4.668;2023-04-24T08:43:24;10.45;;;4.40;;
71777;SDS011;59609;52.430;4.668;2023-04-24T08:45:51;9.40;;;3.65;;
71777;SDS011;59609;52.430;4.668;2023-04-24T08:48:17;11.32;;;4.10;;
71777;SDS011;59609;52.430;4.668;2023-04-24T08:50:43;8.43;;;4.00;;
71777;SDS011;59609;52.430;4.668;2023-04-24T08:53:09;10.20;;;4.55;;
71777;SDS011;59609;52.430;4.668;2023-04-24T08:55:35;9.30;;;4.13;;
71777;SDS011;59609;52.430;4.668;2023-04-24T08:58:01;11.07;;;4.43;;
71777;SDS011;59609;52.430;4.668;2023-04-24T09:00:27;8.80;;;4.05;;
71777;SDS011;59609;52.430;4.668;2023-04-24T09:02:53;5.30;;;3.95;;
71777;SDS011;59609;52.430;4.668;2023-04-24T09:05:20;9.60;;;4.07;;
71777;SDS011;59609;52.430;4.668;2023-04-24T09:07:52;7.97;;;4.35;;
71777;SDS011;59609;52.430;4.668;2023-04-24T09:10:20;6.07;;;2.85;;
71777;SDS011;59609;52.430;4.668;2023-04-24T09:12:46;11.48;;;4.10;;
71777;SDS011;59609;52.430;4.668;2023-04-24T09:15:12;6.30;;;3.15;;
71777;SDS011;59609;52.430;4.668;2023-04-24T09:17:37;5.47;;;3.28;;
71777;SDS011;59609;52.430;4.668;2023-04-24T09:20:03;4.32;;;3.38;;
71777;SDS011;59609;52.430;4.668;2023-04-24T09:22:30;6.13;;;3.90;;
71777;SDS011;59609;52.430;4.668;2023-04-24T09:24:59;4.55;;;3.30;;
71777;SDS011;59609;52.430;4.668;2023-04-24T09:27:28;6.13;;;3.53;;
71777;SDS011;59609;52.430;4.668;2023-04-24T09:29:54;4.50;;;3.28;;
71777;SDS011;59609;52.430;4.668;2023-04-24T09:32:21;4.15;;;2.88;;
71777;SDS011;59609;52.430;4.668;2023-04-24T09:34:47;5.30;;;3.25;;
71777;SDS011;59609;52.430;4.668;2023-04-24T09:37:29;5.95;;;2.35;;
71777;SDS011;59609;52.430;4.668;2023-04-24T09:40:08;3.28;;;2.63;;
71777;SDS011;59609;52.430;4.668;2023-04-24T09:42:35;5.75;;;2.40;;
71777;SDS011;59609;52.430;4.668;2023-04-24T09:45:00;3.83;;;2.40;;
71777;SDS011;59609;52.430;4.668;2023-04-24T09:47:26;4.57;;;2.28;;
71777;SDS011;59609;52.430;4.668;2023-04-24T09:49:53;2.10;;;2.00;;
71777;SDS011;59609;52.430;4.668;2023-04-24T09:52:23;2.83;;;2.17;;
71777;SDS011;59609;52.430;4.668;2023-04-24T09:54:53;2.25;;;2.05;;
71777;SDS011;59609;52.430;4.668;2023-04-24T09:57:19;2.45;;;2.35;;
71777;SDS011;59609;52.430;4.668;2023-04-24T09:59:45;4.35;;;2.13;;
71777;SDS011;59609;52.430;4.668;2023-04-24T10:02:17;4.47;;;2.00;;
71777;SDS011;59609;52.430;4.668;2023-04-24T10:04:53;6.05;;;2.55;;
71777;SDS011;59609;52.430;4.668;2023-04-24T10:07:27;3.58;;;3.38;;
71777;SDS011;59609;52.430;4.668;2023-04-24T10:09:53;6.80;;;2.65;;
71777;SDS011;59609;52.430;4.668;2023-04-24T10:12:19;5.10;;;2.38;;
71777;SDS011;59609;52.430;4.668;2023-04-24T10:14:46;4.63;;;1.67;;
71777;SDS011;59609;52.430;4.668;2023-04-24T10:17:11;9.00;;;2.80;;
71777;SDS011;59609;52.430;4.668;2023-04-24T10:19:37;6.15;;;1.77;;
71777;SDS011;59609;52.430;4.668;2023-04-24T10:22:05;4.00;;;1.50;;
71777;SDS011;59609;52.430;4.668;2023-04-24T10:24:31;4.63;;;2.08;;
71777;SDS011;59609;52.430;4.668;2023-04-24T10:26:58;2.30;;;1.52;;
71777;SDS011;59609;52.430;4.668;2023-04-24T10:29:26;4.15;;;1.85;;
71777;SDS011;59609;52.430;4.668;2023-04-24T10:31:52;2.72;;;1.67;;
71777;SDS011;59609;52.430;4.668;2023-04-24T10:34:17;5.22;;;1.58;;
71777;SDS011;59609;52.430;4.668;2023-04-24T10:36:50;6.70;;;1.45;;
71777;SDS011;59609;52.430;4.668;2023-04-24T10:39:17;4.28;;;1.33;;
71777;SDS011;59609;52.430;4.668;2023-04-24T10:41:43;5.28;;;1.30;;
71777;SDS011;59609;52.430;4.668;2023-04-24T10:44:12;8.07;;;2.35;;
71777;SDS011;59609;52.430;4.668;2023-04-24T10:46:39;1.52;;;1.05;;
71777;SDS011;59609;52.430;4.668;2023-04-24T10:49:09;3.47;;;1.50;;
71777;SDS011;59609;52.430;4.668;2023-04-24T10:56:53;4.78;;;2.40;;
71777;SDS011;59609;52.430;4.668;2023-04-24T10:59:39;3.35;;;1.58;;
71777;SDS011;59609;52.430;4.668;2023-04-24T11:02:04;4.40;;;1.58;;
71777;SDS011;59609;52.430;4.668;2023-04-24T11:04:33;3.83;;;1.92;;
71777;SDS011;59609;52.430;4.668;2023-04-24T11:07:00;2.92;;;1.65;;
71777;SDS011;59609;52.430;4.668;2023-04-24T11:09:28;5.00;;;1.45;;
71777;SDS011;59609;52.430;4.668;2023-04-24T11:12:05;3.45;;;1.70;;
71777;SDS011;59609;52.430;4.668;2023-04-24T11:17:30;9.38;;;2.22;;
71777;SDS011;59609;52.430;4.668;2023-04-24T11:20:02;4.30;;;1.30;;
71777;SDS011;59609;52.430;4.668;2023-04-24T11:22:29;4.10;;;1.52;;
71777;SDS011;59609;52.430;4.668;2023-04-24T11:24:59;3.22;;;1.52;;
71777;SDS011;59609;52.430;4.668;2023-04-24T11:27:27;2.97;;;1.42;;
71777;SDS011;59609;52.430;4.668;2023-04-24T11:35:07;6.35;;;2.20;;
71777;SDS011;59609;52.430;4.668;2023-04-24T11:37:42;8.90;;;2.17;;
71777;SDS011;59609;52.430;4.668;2023-04-24T11:40:11;8.00;;;2.17;;
71777;SDS011;59609;52.430;4.668;2023-04-24T11:42:38;10.32;;;2.95;;
71777;SDS011;59609;52.430;4.668;2023-04-24T11:45:14;8.15;;;2.47;;
71777;SDS011;59609;52.430;4.668;2023-04-24T11:47:40;7.32;;;2.50;;
71777;SDS011;59609;52.430;4.668;2023-04-24T11:50:11;6.85;;;3.58;;
71777;SDS011;59609;52.430;4.668;2023-04-24T11:52:39;5.10;;;1.92;;
71777;SDS011;59609;52.430;4.668;2023-04-24T11:55:27;5.13;;;2.30;;
71777;SDS011;59609;52.430;4.668;2023-04-24T11:57:54;13.27;;;3.05;;
71777;SDS011;59609;52.430;4.668;2023-04-24T12:02:49;7.82;;;2.00;;
71777;SDS011;59609;52.430;4.668;2023-04-24T12:05:21;9.02;;;2.60;;
71777;SDS011;59609;52.430;4.668;2023-04-24T12:07:48;9.45;;;2.70;;
71777;SDS011;59609;52.430;4.668;2023-04-24T12:10:14;10.05;;;2.70;;
71777;SDS011;59609;52.430;4.668;2023-04-24T12:12:44;9.10;;;2.20;;
71777;SDS011;59609;52.430;4.668;2023-04-24T12:15:11;6.75;;;2.55;;
71777;SDS011;59609;52.430;4.668;2023-04-24T12:17:40;4.50;;;1.55;;
71777;SDS011;59609;52.430;4.668;2023-04-24T12:20:07;10.90;;;2.83;;
71777;SDS011;59609;52.430;4.668;2023-04-24T12:22:43;6.85;;;2.10;;
71777;SDS011;59609;52.430;4.668;2023-04-24T12:25:09;12.80;;;2.28;;
71777;SDS011;59609;52.430;4.668;2023-04-24T12:27:35;8.23;;;2.70;;
71777;SDS011;59609;52.430;4.668;2023-04-24T12:30:02;10.10;;;3.20;;
71777;SDS011;59609;52.430;4.668;2023-04-24T12:32:29;13.45;;;2.13;;
71777;SDS011;59609;52.430;4.668;2023-04-24T12:34:55;9.10;;;2.28;;
71777;SDS011;59609;52.430;4.668;2023-04-24T12:37:24;6.88;;;2.08;;
71777;SDS011;59609;52.430;4.668;2023-04-24T12:39:58;16.85;;;2.65;;
71777;SDS011;59609;52.430;4.668;2023-04-24T12:42:26;12.43;;;2.45;;
71777;SDS011;59609;52.430;4.668;2023-04-24T12:44:56;8.48;;;2.55;;
71777;SDS011;59609;52.430;4.668;2023-04-24T12:47:23;12.48;;;2.33;;
71777;SDS011;59609;52.430;4.668;2023-04-24T12:49:49;9.98;;;2.10;;
71777;SDS011;59609;52.430;4.668;2023-04-24T12:52:17;8.85;;;2.30;;
71777;SDS011;59609;52.430;4.668;2023-04-24T12:54:44;11.68;;;2.42;;
71777;SDS011;59609;52.430;4.668;2023-04-24T12:57:10;11.02;;;1.90;;
71777;SDS011;59609;52.430;4.668;2023-04-24T12:59:36;10.95;;;2.63;;
71777;SDS011;59609;52.430;4.668;2023-04-24T13:02:01;9.07;;;2.03;;
71777;SDS011;59609;52.430;4.668;2023-04-24T13:04:27;9.60;;;2.50;;
71777;SDS011;59609;52.430;4.668;2023-04-24T13:06:52;6.80;;;1.83;;
71777;SDS011;59609;52.430;4.668;2023-04-24T13:09:17;7.05;;;1.75;;
71777;SDS011;59609;52.430;4.668;2023-04-24T13:11:43;4.57;;;1.73;;
71777;SDS011;59609;52.430;4.668;2023-04-24T13:14:08;4.40;;;1.85;;
71777;SDS011;59609;52.430;4.668;2023-04-24T13:16:33;12.10;;;2.58;;
71777;SDS011;59609;52.430;4.668;2023-04-24T13:18:59;8.98;;;2.25;;
71777;SDS011;59609;52.430;4.668;2023-04-24T13:21:24;8.93;;;2.47;;
71777;SDS011;59609;52.430;4.668;2023-04-24T13:23:51;8.57;;;2.35;;
71777;SDS011;59609;52.430;4.668;2023-04-24T13:26:16;14.02;;;2.20;;
71777;SDS011;59609;52.430;4.668;2023-04-24T13:28:42;6.35;;;1.88;;
71777;SDS011;59609;52.430;4.668;2023-04-24T13:31:07;5.88;;;2.15;;
71777;SDS011;59609;52.430;4.668;2023-04-24T13:33:32;4.97;;;2.15;;
71777;SDS011;59609;52.430;4.668;2023-04-24T13:35:58;6.10;;;1.75;;
71777;SDS011;59609;52.430;4.668;2023-04-24T13:38:23;5.25;;;1.70;;
71777;SDS011;59609;52.430;4.668;2023-04-24T13:40:49;4.57;;;1.80;;
71777;SDS011;59609;52.430;4.668;2023-04-24T13:43:14;4.10;;;2.00;;
71777;SDS011;59609;52.430;4.668;2023-04-24T13:45:40;4.93;;;1.42;;
71777;SDS011;59609;52.430;4.668;2023-04-24T13:48:06;4.75;;;1.80;;
71777;SDS011;59609;52.430;4.668;2023-04-24T13:50:31;6.95;;;1.63;;
71777;SDS011;59609;52.430;4.668;2023-04-24T13:52:56;4.85;;;1.58;;
71777;SDS011;59609;52.430;4.668;2023-04-24T13:55:22;7.25;;;1.60;;
71777;SDS011;59609;52.430;4.668;2023-04-24T13:57:47;8.40;;;2.72;;
71777;SDS011;59609;52.430;4.668;2023-04-24T14:00:14;6.43;;;1.90;;
71777;SDS011;59609;52.430;4.668;2023-04-24T14:02:40;14.32;;;3.20;;
71777;SDS011;59609;52.430;4.668;2023-04-24T14:05:05;7.35;;;2.42;;
71777;SDS011;59609;52.430;4.668;2023-04-24T14:07:31;6.07;;;2.15;;
71777;SDS011;59609;52.430;4.668;2023-04-24T14:09:56;11.15;;;2.92;;
71777;SDS011;59609;52.430;4.668;2023-04-24T14:12:22;12.40;;;2.53;;
71777;SDS011;59609;52.430;4.668;2023-04-24T14:14:47;10.05;;;2.50;;
71777;SDS011;59609;52.430;4.668;2023-04-24T14:17:13;8.73;;;2.10;;
71777;SDS011;59609;52.430;4.668;2023-04-24T14:19:39;6.93;;;2.65;;
71777;SDS011;59609;52.430;4.668;2023-04-24T14:22:04;11.93;;;2.17;;
71777;SDS011;59609;52.430;4.668;2023-04-24T14:24:30;11.75;;;2.30;;
71777;SDS011;59609;52.430;4.668;2023-04-24T14:26:55;10.65;;;2.58;;
71777;SDS011;59609;52.430;4.668;2023-04-24T14:29:21;11.50;;;2.22;;
71777;SDS011;59609;52.430;4.668;2023-04-24T14:31:46;11.75;;;2.13;;
71777;SDS011;59609;52.430;4.668;2023-04-24T14:34:13;10.13;;;2.65;;
71777;SDS011;59609;52.430;4.668;2023-04-24T14:36:38;11.18;;;2.70;;
71777;SDS011;59609;52.430;4.668;2023-04-24T14:39:04;8.73;;;2.35;;
71777;SDS011;59609;52.430;4.668;2023-04-24T14:41:32;12.43;;;2.30;;
71777;SDS011;59609;52.430;4.668;2023-04-24T14:44:00;14.32;;;2.80;;
71777;SDS011;59609;52.430;4.668;2023-04-24T14:46:29;8.40;;;2.97;;
71777;SDS011;59609;52.430;4.668;2023-04-24T14:48:55;12.60;;;2.50;;
71777;SDS011;59609;52.430;4.668;2023-04-24T14:51:21;7.18;;;1.85;;
71777;SDS011;59609;52.430;4.668;2023-04-24T14:53:47;7.28;;;1.40;;